createdAt,value
2019-05-05T00:04:30.286Z,0
2019-05-05T00:05:10.880Z,0
2019-05-05T00:05:51.444Z,0
2019-05-05T00:06:34.119Z,0
2019-05-05T00:07:14.693Z,0
2019-05-05T00:07:54.135Z,0
2019-05-05T00:08:35.118Z,0
2019-05-05T00:09:14.721Z,0
2019-05-05T00:09:55.179Z,0
2019-05-05T00:16:40.475Z,0
2019-05-05T00:17:21.059Z,0
2019-05-05T00:18:01.603Z,0
2019-05-05T00:18:42.169Z,0
2019-05-05T00:19:30.568Z,0
2019-05-05T00:20:05.055Z,0
2019-05-05T00:20:44.632Z,0
2019-05-05T00:21:24.494Z,0
2019-05-05T00:22:05.036Z,0
2019-05-05T00:28:10.304Z,0
2019-05-05T00:28:50.865Z,0
2019-05-05T00:29:31.432Z,0
2019-05-05T00:30:11.998Z,0
2019-05-05T00:30:52.796Z,0
2019-05-05T00:31:34.851Z,0
2019-05-05T00:32:15.248Z,0
2019-05-05T00:32:54.906Z,0
2019-05-05T00:33:35.144Z,0
2019-05-05T00:39:40.279Z,0
2019-05-05T00:40:20.860Z,0
2019-05-05T00:41:01.419Z,0
2019-05-05T00:41:41.978Z,0
2019-05-05T00:42:24.527Z,0
2019-05-05T00:43:05.118Z,0
2019-05-05T00:43:45.069Z,0
2019-05-05T00:44:24.954Z,0
2019-05-05T00:45:05.593Z,0
2019-05-05T00:45:46.134Z,0
2019-05-05T00:46:26.696Z,0
2019-05-05T00:49:09.616Z,0
2019-05-05T00:49:50.227Z,0
2019-05-05T00:50:30.821Z,0
2019-05-05T00:51:11.372Z,0
2019-05-05T00:51:51.925Z,0
2019-05-05T00:52:32.504Z,0
2019-05-05T00:53:14.550Z,0
2019-05-05T00:53:55.376Z,0
2019-05-05T00:54:34.782Z,0
2019-05-05T01:01:19.916Z,0
2019-05-05T01:02:00.494Z,0
2019-05-05T01:02:41.038Z,0
2019-05-05T01:03:21.596Z,0
2019-05-05T01:04:02.162Z,0
2019-05-05T01:04:44.503Z,0
2019-05-05T01:05:25.119Z,0
2019-05-05T01:06:04.517Z,0
2019-05-05T01:06:45.009Z,0
2019-05-05T01:10:38.924Z,0
2019-05-05T01:11:19.473Z,0
2019-05-05T01:12:00.035Z,0
2019-05-05T01:12:40.596Z,0
2019-05-05T01:16:45.589Z,0
2019-05-05T01:17:25.263Z,0
2019-05-05T01:18:05.039Z,0
2019-05-05T01:18:45.590Z,0
2019-05-05T01:19:26.191Z,0
2019-05-05T01:20:07.111Z,0
2019-05-05T01:20:47.314Z,0
2019-05-05T01:21:27.860Z,0
2019-05-05T01:22:08.442Z,0
2019-05-05T01:28:14.367Z,0
2019-05-05T01:28:56.260Z,0
2019-05-05T01:32:35.129Z,0
2019-05-05T01:33:14.559Z,0
2019-05-05T01:33:54.891Z,0
2019-05-05T01:34:35.443Z,0
2019-05-05T01:38:38.836Z,0
2019-05-05T01:39:19.386Z,0
2019-05-05T01:39:59.956Z,0
2019-05-05T01:40:40.550Z,0
2019-05-05T01:41:21.113Z,0
2019-05-05T01:42:01.678Z,0
2019-05-05T01:42:42.260Z,0
2019-05-05T01:43:22.849Z,0
2019-05-05T01:50:18.150Z,0
2019-05-05T01:50:49.056Z,0
2019-05-05T01:51:29.623Z,0
2019-05-05T01:52:10.185Z,0
2019-05-05T01:52:50.743Z,0
2019-05-05T01:53:31.296Z,0
2019-05-05T01:54:11.894Z,0
2019-05-05T01:54:54.239Z,0
2019-05-05T01:55:34.675Z,0
2019-05-05T02:02:18.607Z,0
2019-05-05T02:02:59.186Z,0
2019-05-05T02:03:39.737Z,0
2019-05-05T02:04:20.288Z,0
2019-05-05T02:05:00.865Z,0
2019-05-05T02:05:41.417Z,0
2019-05-05T02:06:21.984Z,0
2019-05-05T02:07:02.542Z,0
2019-05-05T02:07:44.805Z,0
2019-05-05T02:14:28.678Z,0
2019-05-05T02:15:09.225Z,0
2019-05-05T02:15:49.795Z,0
2019-05-05T02:16:30.379Z,0
2019-05-05T02:17:10.951Z,0
2019-05-05T02:17:51.501Z,0
2019-05-05T02:18:32.054Z,0
2019-05-05T02:19:14.283Z,0
2019-05-05T02:19:54.901Z,0
2019-05-05T02:26:38.805Z,0
2019-05-05T02:27:19.743Z,0
2019-05-05T02:27:59.925Z,0
2019-05-05T02:28:40.494Z,0
2019-05-05T02:29:21.056Z,0
2019-05-05T02:30:01.615Z,0
2019-05-05T02:30:42.159Z,0
2019-05-05T02:31:25.367Z,0
2019-05-05T02:32:06.175Z,0
2019-05-05T02:38:08.311Z,0
2019-05-05T02:38:48.865Z,0
2019-05-05T02:39:29.431Z,0
2019-05-05T02:40:10.003Z,0
2019-05-05T02:40:50.559Z,0
2019-05-05T02:41:31.109Z,0
2019-05-05T02:42:14.357Z,0
2019-05-05T02:42:54.591Z,0
2019-05-05T02:43:34.408Z,0
2019-05-05T02:44:15.425Z,0
2019-05-05T02:50:18.379Z,0
2019-05-05T02:51:01.978Z,0
2019-05-05T02:51:39.523Z,0
2019-05-05T02:52:20.084Z,0
2019-05-05T02:53:00.640Z,0
2019-05-05T02:53:41.221Z,0
2019-05-05T02:54:21.777Z,0
2019-05-05T02:55:04.060Z,0
2019-05-05T02:55:44.209Z,0
2019-05-05T03:02:28.526Z,0
2019-05-05T03:03:09.084Z,0
2019-05-05T03:03:49.644Z,0
2019-05-05T03:04:30.204Z,0
2019-05-05T03:05:10.756Z,0
2019-05-05T03:05:51.316Z,0
2019-05-05T03:06:31.912Z,0
2019-05-05T03:07:13.753Z,0
2019-05-05T03:07:54.297Z,0
2019-05-05T03:14:38.632Z,0
2019-05-05T03:15:19.193Z,0
2019-05-05T03:15:59.739Z,0
2019-05-05T03:16:40.290Z,0
2019-05-05T03:17:20.839Z,0
2019-05-05T03:18:01.394Z,0
2019-05-05T03:18:43.914Z,0
2019-05-05T03:19:23.517Z,0
2019-05-05T03:20:04.077Z,0
2019-05-05T03:26:48.757Z,0
2019-05-05T03:27:29.314Z,0
2019-05-05T03:28:09.873Z,0
2019-05-05T03:28:50.430Z,0
2019-05-05T03:29:31.005Z,0
2019-05-05T03:30:11.565Z,0
2019-05-05T03:30:55.438Z,0
2019-05-05T03:31:35.106Z,0
2019-05-05T03:32:15.879Z,0
2019-05-05T03:38:18.316Z,5
2019-05-05T03:38:58.905Z,5
2019-05-05T03:39:39.462Z,5
2019-05-05T03:40:20.031Z,5
2019-05-05T03:41:00.620Z,5
2019-05-05T03:41:41.170Z,5
2019-05-05T03:42:21.759Z,5
2019-05-05T03:43:04.179Z,5
2019-05-05T03:43:43.409Z,5
2019-05-05T03:50:28.576Z,10
2019-05-05T03:51:18.089Z,10
2019-05-05T03:51:49.691Z,10
2019-05-05T03:52:30.273Z,10
2019-05-05T03:53:10.822Z,10
2019-05-05T03:53:53.419Z,10
2019-05-05T03:54:31.917Z,10
2019-05-05T03:55:13.751Z,10
2019-05-05T03:55:54.460Z,15
2019-05-05T04:02:38.632Z,15
2019-05-05T04:03:19.195Z,15
2019-05-05T04:03:59.754Z,15
2019-05-05T04:04:40.321Z,20
2019-05-05T04:05:20.887Z,20
2019-05-05T04:06:01.426Z,20
2019-05-05T04:06:41.976Z,20
2019-05-05T04:07:24.191Z,20
2019-05-05T04:08:03.892Z,20
2019-05-05T04:14:48.715Z,25
2019-05-05T04:15:29.265Z,25
2019-05-05T04:16:09.817Z,25
2019-05-05T04:16:50.378Z,25
2019-05-05T04:17:30.943Z,25
2019-05-05T04:18:11.518Z,25
2019-05-05T04:18:54.024Z,25
2019-05-05T04:19:34.238Z,25
2019-05-05T04:20:13.743Z,25
2019-05-05T04:26:58.811Z,30
2019-05-05T04:27:39.363Z,30
2019-05-05T04:28:19.931Z,35
2019-05-05T04:29:02.325Z,35
2019-05-05T04:29:41.058Z,35
2019-05-05T04:30:23.573Z,35
2019-05-05T04:31:04.179Z,35
2019-05-05T04:31:43.508Z,35
2019-05-05T04:38:28.577Z,40
2019-05-05T04:39:09.143Z,40
2019-05-05T04:39:49.684Z,40
2019-05-05T04:40:30.246Z,40
2019-05-05T04:41:10.797Z,40
2019-05-05T04:41:51.342Z,40
2019-05-05T04:42:33.655Z,40
2019-05-05T04:43:14.257Z,40
2019-05-05T04:43:54.658Z,40
2019-05-05T04:46:46.416Z,45
2019-05-05T04:47:27.027Z,45
2019-05-05T04:48:07.576Z,45
2019-05-05T04:48:48.139Z,45
2019-05-05T04:52:11.013Z,45
2019-05-05T04:52:51.574Z,50
2019-05-05T04:53:32.136Z,50
2019-05-05T04:54:14.151Z,50
2019-05-05T04:54:55.396Z,50
2019-05-05T04:55:33.859Z,50
2019-05-05T04:56:14.370Z,50
2019-05-05T04:56:54.926Z,50
2019-05-05T04:57:35.555Z,50
2019-05-05T04:58:16.047Z,50
2019-05-05T05:04:21.113Z,55
2019-05-05T05:05:03.823Z,55
2019-05-05T05:05:44.038Z,55
2019-05-05T05:06:23.658Z,55
2019-05-05T05:07:04.588Z,60
2019-05-05T05:07:44.025Z,60
2019-05-05T05:08:24.785Z,60
2019-05-05T05:09:05.083Z,60
2019-05-05T05:09:45.633Z,60
2019-05-05T05:13:51.177Z,65
2019-05-05T05:14:33.620Z,65
2019-05-05T05:15:14.333Z,65
2019-05-05T05:15:53.931Z,65
2019-05-05T05:16:35.530Z,65
2019-05-05T05:17:14.210Z,65
2019-05-05T05:17:54.663Z,65
2019-05-05T05:18:35.227Z,65
2019-05-05T05:19:15.773Z,65
2019-05-05T05:26:01.563Z,75
2019-05-05T05:26:43.930Z,75
2019-05-05T05:27:24.422Z,75
2019-05-05T05:28:04.123Z,75
2019-05-05T05:28:44.828Z,75
2019-05-05T05:29:25.219Z,75
2019-05-05T05:30:05.784Z,75
2019-05-05T05:36:11.375Z,630
2019-05-05T05:36:53.607Z,1195
2019-05-05T05:37:34.252Z,1545
2019-05-05T05:38:13.978Z,1615
2019-05-05T05:38:54.159Z,1640
2019-05-05T05:39:34.187Z,1710
2019-05-05T05:40:15.346Z,1685
2019-05-05T05:40:55.920Z,1695
2019-05-05T05:47:01.145Z,1615
2019-05-05T05:47:41.715Z,1780
2019-05-05T05:48:23.657Z,1765
2019-05-05T05:49:04.495Z,1645
2019-05-05T05:49:43.962Z,1640
2019-05-05T05:50:24.485Z,1675
2019-05-05T05:51:04.569Z,1695
2019-05-05T05:51:45.141Z,1715
2019-05-05T05:52:25.690Z,1760
2019-05-05T05:59:11.463Z,1700
2019-05-05T05:59:52.042Z,1825
2019-05-05T06:00:34.310Z,1880
2019-05-05T06:01:14.660Z,1890
2019-05-05T06:02:08.199Z,1850
2019-05-05T06:02:34.458Z,1820
2019-05-05T06:03:15.019Z,1815
2019-05-05T06:03:56.096Z,1770
2019-05-05T06:06:41.375Z,1830
2019-05-05T06:07:24.488Z,1810
2019-05-05T06:08:04.678Z,1925
2019-05-05T06:08:45.588Z,1980
2019-05-05T06:12:11.626Z,1575
2019-05-05T06:12:54.595Z,1540
2019-05-05T06:13:34.141Z,1750
2019-05-05T06:14:15.346Z,1895
2019-05-05T06:20:20.984Z,2005
2019-05-05T06:21:01.551Z,2015
2019-05-05T06:21:43.929Z,1900
2019-05-05T06:22:29.094Z,1920
2019-05-05T06:23:04.034Z,1915
2019-05-05T06:23:43.927Z,1875
2019-05-05T06:24:24.382Z,1885
2019-05-05T06:25:06.434Z,1975
2019-05-05T06:25:45.515Z,2025
2019-05-05T06:32:31.401Z,1985
2019-05-05T06:33:13.675Z,1950
2019-05-05T06:33:54.264Z,1965
2019-05-05T06:34:33.806Z,2070
2019-05-05T06:35:13.913Z,2025
2019-05-05T06:35:54.250Z,1855
2019-05-05T06:36:34.819Z,1915
2019-05-05T06:37:15.391Z,1960
2019-05-05T06:37:55.963Z,1950
2019-05-05T06:44:01.116Z,1900
2019-05-05T06:44:41.689Z,2035
2019-05-05T06:45:23.855Z,2030
2019-05-05T06:46:04.036Z,1925
2019-05-05T06:46:44.557Z,1895
2019-05-05T06:47:23.963Z,1960
2019-05-05T06:48:04.529Z,1985
2019-05-05T06:48:45.099Z,1985
2019-05-05T06:49:25.668Z,1975
2019-05-05T06:54:51.140Z,1875
2019-05-05T06:55:33.956Z,1990
2019-05-05T06:56:14.525Z,1995
2019-05-05T06:56:53.954Z,1965
2019-05-05T06:57:35.099Z,2000
2019-05-05T06:58:15.668Z,2080
2019-05-05T07:02:21.074Z,2085
2019-05-05T07:03:05.533Z,2145
2019-05-05T07:03:43.807Z,2070
2019-05-05T07:04:25.116Z,2105
2019-05-05T07:05:05.743Z,2120
2019-05-05T07:09:13.371Z,1875
2019-05-05T07:09:54.046Z,1820
2019-05-05T07:10:34.019Z,1745
2019-05-05T07:11:14.685Z,1670
2019-05-05T07:11:55.007Z,1560
2019-05-05T07:12:35.580Z,1480
2019-05-05T07:19:21.310Z,710
2019-05-05T07:20:03.741Z,690
2019-05-05T07:20:44.015Z,685
2019-05-05T07:21:23.640Z,665
2019-05-05T07:22:04.111Z,650
2019-05-05T07:22:57.850Z,640
2019-05-05T07:23:25.946Z,640
2019-05-05T07:29:31.147Z,595
2019-05-05T07:33:10.773Z,600
2019-05-05T07:33:51.368Z,600
2019-05-05T07:34:33.476Z,620
2019-05-05T07:35:14.530Z,615
2019-05-05T07:38:35.418Z,600
2019-05-05T07:39:16.101Z,590
2019-05-05T07:39:56.689Z,590
2019-05-05T07:40:37.251Z,590
2019-05-05T07:41:17.818Z,585
2019-05-05T07:41:58.398Z,580
2019-05-05T08:14:03.973Z,330
2019-05-05T08:14:44.382Z,325
2019-05-05T08:15:23.803Z,325
2019-05-05T08:16:04.031Z,320
2019-05-05T08:19:26.924Z,290
2019-05-05T08:20:07.493Z,285
2019-05-05T08:20:48.061Z,275
2019-05-05T08:23:28.879Z,265
2019-05-05T08:23:56.696Z,255
2019-05-05T08:24:37.266Z,250
2019-05-05T08:25:17.820Z,250
2019-05-05T08:29:21.233Z,245
2019-05-05T08:30:04.633Z,240
2019-05-05T08:30:44.102Z,235
2019-05-05T08:31:24.775Z,235
2019-05-05T08:32:04.331Z,235
2019-05-05T08:32:44.046Z,235
2019-05-05T08:33:24.617Z,235
2019-05-05T08:34:05.170Z,235
2019-05-05T08:34:56.847Z,240
2019-05-05T08:40:50.815Z,220
2019-05-05T08:41:31.373Z,245
2019-05-05T08:42:14.174Z,160
2019-05-05T08:42:53.871Z,150
2019-05-05T08:43:34.700Z,230
2019-05-05T08:44:14.237Z,225
2019-05-05T08:44:54.216Z,225
2019-05-05T08:45:35.146Z,225
2019-05-05T08:46:15.341Z,205
2019-05-05T08:53:01.029Z,225
2019-05-05T08:53:47.295Z,225
2019-05-05T08:54:23.578Z,225
2019-05-05T08:55:04.643Z,225
2019-05-05T08:55:44.236Z,220
2019-05-05T08:56:23.870Z,215
2019-05-05T08:57:04.444Z,205
2019-05-05T08:57:44.988Z,185
2019-05-05T08:58:25.553Z,185
2019-05-05T09:05:11.203Z,130
2019-05-05T09:05:53.999Z,125
2019-05-05T09:06:34.172Z,115
2019-05-05T09:07:13.715Z,120
2019-05-05T09:07:54.726Z,115
2019-05-05T09:08:34.679Z,110
2019-05-05T09:09:14.645Z,115
2019-05-05T09:09:55.159Z,105
2019-05-05T09:10:35.726Z,105
2019-05-05T09:16:00.734Z,145
2019-05-05T09:16:41.307Z,155
2019-05-05T09:22:53.035Z,160
2019-05-05T09:23:31.749Z,155
2019-05-05T09:24:13.931Z,150
2019-05-05T09:24:53.643Z,145
2019-05-05T09:25:34.117Z,140
2019-05-05T09:26:14.019Z,140
2019-05-05T09:26:54.582Z,140
2019-05-05T09:27:35.152Z,140
2019-05-05T09:28:15.712Z,145
2019-05-05T09:34:20.813Z,150
2019-05-05T09:35:01.365Z,120
2019-05-05T09:35:43.656Z,120
2019-05-05T09:36:24.288Z,135
2019-05-05T09:37:03.629Z,120
2019-05-05T09:37:44.283Z,120
2019-05-05T09:38:24.177Z,120
2019-05-05T09:39:04.740Z,115
2019-05-05T09:39:45.312Z,115
2019-05-05T09:46:30.969Z,140
2019-05-05T09:47:13.385Z,155
2019-05-05T09:47:53.839Z,160
2019-05-05T09:48:33.539Z,155
2019-05-05T09:49:14.037Z,155
2019-05-05T09:49:54.927Z,155
2019-05-05T09:50:34.333Z,155
2019-05-05T09:51:14.900Z,155
2019-05-05T09:51:55.453Z,150
2019-05-05T09:58:41.101Z,155
2019-05-05T09:59:23.507Z,155
2019-05-05T10:00:04.529Z,155
2019-05-05T10:00:44.109Z,160
2019-05-05T10:01:24.524Z,160
2019-05-05T10:02:04.584Z,160
2019-05-05T10:02:44.821Z,160
2019-05-05T10:03:25.374Z,160
2019-05-05T10:10:11.111Z,115
2019-05-05T10:10:51.679Z,115
2019-05-05T10:11:32.244Z,110
2019-05-05T10:12:12.858Z,110
2019-05-05T10:12:54.981Z,105
2019-05-05T10:13:34.036Z,105
2019-05-05T10:14:14.597Z,105
2019-05-05T10:14:55.163Z,105
2019-05-05T10:15:35.726Z,100
2019-05-05T10:21:40.824Z,100
2019-05-05T10:22:21.388Z,95
2019-05-05T10:23:01.949Z,95
2019-05-05T10:23:43.577Z,95
2019-05-05T10:24:28.331Z,95
2019-05-05T10:25:04.138Z,100
2019-05-05T10:25:44.714Z,95
2019-05-05T10:26:24.777Z,95
2019-05-05T10:27:05.352Z,95
2019-05-05T10:33:51.035Z,95
2019-05-05T10:34:33.437Z,90
2019-05-05T10:35:13.801Z,90
2019-05-05T10:35:54.109Z,90
2019-05-05T10:36:33.886Z,95
2019-05-05T10:37:14.450Z,95
2019-05-05T10:37:55.043Z,95
2019-05-05T10:38:35.619Z,100
2019-05-05T10:44:40.708Z,115
2019-05-05T10:45:21.275Z,120
2019-05-05T10:46:03.640Z,120
2019-05-05T10:46:42.419Z,155
2019-05-05T10:47:24.145Z,160
2019-05-05T10:48:04.138Z,160
2019-05-05T10:48:44.597Z,160
2019-05-05T10:49:31.531Z,165
2019-05-05T10:50:13.415Z,165
2019-05-05T10:50:53.693Z,165
2019-05-05T10:51:34.555Z,165
2019-05-05T10:52:14.178Z,165
2019-05-05T10:52:54.067Z,165
2019-05-05T10:53:34.675Z,165
2019-05-05T10:54:15.235Z,160
2019-05-05T11:01:00.942Z,125
2019-05-05T11:01:41.505Z,125
2019-05-05T11:02:23.652Z,125
2019-05-05T11:03:03.973Z,125
2019-05-05T11:03:44.607Z,120
2019-05-05T11:04:24.306Z,120
2019-05-05T11:05:04.341Z,120
2019-05-05T11:05:45.169Z,115
2019-05-05T11:06:25.453Z,120
2019-05-05T11:12:30.820Z,100
2019-05-05T11:13:11.392Z,110
2019-05-05T11:13:53.801Z,135
2019-05-05T11:14:33.649Z,120
2019-05-05T11:15:14.120Z,105
2019-05-05T11:15:54.626Z,95
2019-05-05T11:16:34.240Z,95
2019-05-05T11:17:14.814Z,90
2019-05-05T11:17:55.377Z,90
2019-05-05T11:24:53.712Z,80
2019-05-05T11:25:21.612Z,80
2019-05-05T11:26:02.176Z,80
2019-05-05T11:26:44.532Z,80
2019-05-05T11:27:24.097Z,80
2019-05-05T11:28:03.865Z,80
2019-05-05T11:28:44.639Z,80
2019-05-05T11:29:25.003Z,80
2019-05-05T11:30:05.573Z,80
2019-05-05T11:36:10.717Z,95
2019-05-05T11:36:51.273Z,100
2019-05-05T11:37:33.808Z,100
2019-05-05T11:38:14.141Z,100
2019-05-05T11:38:53.634Z,100
2019-05-05T11:39:34.061Z,100
2019-05-05T11:43:14.177Z,90
2019-05-05T11:43:53.581Z,90
2019-05-05T11:44:34.059Z,90
2019-05-05T11:45:14.919Z,85
2019-05-05T11:49:18.002Z,95
2019-05-05T11:49:58.559Z,95
2019-05-05T11:50:39.107Z,95
2019-05-05T11:51:19.667Z,95
2019-05-05T11:52:00.227Z,100
2019-05-05T11:52:40.817Z,100
2019-05-05T11:53:21.393Z,100
2019-05-05T11:54:01.944Z,100
2019-05-05T11:54:43.851Z,100
2019-05-05T12:00:07.975Z,110
2019-05-05T12:00:48.811Z,110
2019-05-05T12:01:29.481Z,110
2019-05-05T12:02:10.658Z,110
2019-05-05T12:02:51.626Z,110
2019-05-05T12:03:33.930Z,115
2019-05-05T12:08:57.543Z,115
2019-05-05T12:09:38.098Z,120
2019-05-05T12:10:18.684Z,120
2019-05-05T12:10:59.237Z,125
2019-05-05T12:11:39.803Z,130
2019-05-05T12:12:20.362Z,135
2019-05-05T12:13:00.921Z,140
2019-05-05T12:13:43.470Z,125
2019-05-05T12:14:24.973Z,140
2019-05-05T12:21:07.707Z,110
2019-05-05T12:21:48.260Z,110
2019-05-05T12:22:28.811Z,110
2019-05-05T12:23:09.382Z,110
2019-05-05T12:23:49.943Z,110
2019-05-05T12:24:30.507Z,110
2019-05-05T12:25:23.203Z,110
2019-05-05T12:25:54.905Z,110
2019-05-05T12:26:32.190Z,110
2019-05-05T12:33:17.897Z,100
2019-05-05T12:33:58.457Z,100
2019-05-05T12:34:39.018Z,100
2019-05-05T12:35:19.589Z,100
2019-05-05T12:36:00.160Z,100
2019-05-05T12:36:40.729Z,100
2019-05-05T12:37:21.303Z,100
2019-05-05T12:38:01.858Z,100
2019-05-05T12:38:43.896Z,100
2019-05-05T12:44:48.406Z,100
2019-05-05T12:45:28.984Z,95
2019-05-05T12:46:09.551Z,95
2019-05-05T12:46:50.218Z,95
2019-05-05T12:47:30.775Z,95
2019-05-05T12:48:13.337Z,90
2019-05-05T12:48:51.892Z,95
2019-05-05T12:49:33.780Z,95
2019-05-05T12:55:41.302Z,90
2019-05-05T12:56:18.130Z,85
2019-05-05T12:56:58.693Z,85
2019-05-05T12:57:39.244Z,85
2019-05-05T12:58:19.812Z,85
2019-05-05T12:59:00.370Z,85
2019-05-05T12:59:40.938Z,85
2019-05-05T13:00:21.501Z,85
2019-05-05T13:01:03.757Z,85
2019-05-05T13:07:47.784Z,95
2019-05-05T13:08:28.354Z,95
2019-05-05T13:09:08.910Z,95
2019-05-05T13:09:49.477Z,95
2019-05-05T13:10:30.036Z,100
2019-05-05T13:11:10.598Z,100
2019-05-05T13:11:51.389Z,100
2019-05-05T13:12:31.950Z,100
2019-05-05T13:13:14.055Z,105
2019-05-05T13:19:17.577Z,100
2019-05-05T13:19:58.137Z,105
2019-05-05T13:20:38.708Z,105
2019-05-05T13:21:19.288Z,105
2019-05-05T13:21:59.851Z,105
2019-05-05T13:22:40.410Z,105
2019-05-05T13:23:20.965Z,105
2019-05-05T13:24:01.524Z,105
2019-05-05T13:24:43.578Z,105
2019-05-05T13:31:27.800Z,95
2019-05-05T13:32:08.357Z,90
2019-05-05T13:32:48.923Z,90
2019-05-05T13:33:29.485Z,90
2019-05-05T13:34:10.041Z,85
2019-05-05T13:34:50.595Z,85
2019-05-05T13:35:31.170Z,85
2019-05-05T13:36:13.549Z,85
2019-05-05T13:36:52.303Z,85
2019-05-05T13:43:37.947Z,80
2019-05-05T13:44:18.520Z,80
2019-05-05T13:44:59.094Z,80
2019-05-05T13:45:39.676Z,80
2019-05-05T13:46:20.241Z,80
2019-05-05T13:47:00.807Z,80
2019-05-05T13:47:43.524Z,80
2019-05-05T13:48:21.955Z,85
2019-05-05T13:49:04.035Z,85
2019-05-05T13:55:07.577Z,90
2019-05-05T13:55:48.154Z,90
2019-05-05T13:56:28.708Z,90
2019-05-05T13:57:09.283Z,90
2019-05-05T13:57:49.843Z,90
2019-05-05T13:58:30.414Z,90
2019-05-05T13:59:10.984Z,90
2019-05-05T13:59:51.550Z,90
2019-05-05T14:00:33.766Z,90
2019-05-05T14:07:17.819Z,160
2019-05-05T14:07:58.375Z,165
2019-05-05T14:08:38.947Z,160
2019-05-05T14:09:19.527Z,160
2019-05-05T14:10:00.086Z,165
2019-05-05T14:10:40.650Z,165
2019-05-05T14:11:21.207Z,135
2019-05-05T14:12:03.872Z,130
2019-05-05T14:12:43.730Z,130
2019-05-05T14:19:27.993Z,140
2019-05-05T14:20:11.846Z,135
2019-05-05T14:20:49.129Z,125
2019-05-05T14:21:29.693Z,130
2019-05-05T14:22:11.353Z,160
2019-05-05T14:22:51.916Z,125
2019-05-05T14:23:34.390Z,115
2019-05-05T14:29:37.595Z,170
2019-05-05T14:30:18.162Z,170
2019-05-05T14:30:58.726Z,170
2019-05-05T14:31:39.298Z,170
2019-05-05T14:32:19.881Z,170
2019-05-05T14:33:00.442Z,165
2019-05-05T14:33:41.027Z,165
2019-05-05T14:34:21.594Z,165
2019-05-05T14:35:03.959Z,150
2019-05-05T14:41:47.847Z,150
2019-05-05T14:42:28.418Z,135
2019-05-05T14:43:08.986Z,125
2019-05-05T14:43:49.551Z,130
2019-05-05T14:44:30.122Z,120
2019-05-05T14:45:10.804Z,140
2019-05-05T14:45:51.364Z,110
2019-05-05T14:46:33.920Z,85
2019-05-05T14:47:13.586Z,135
2019-05-05T14:53:17.604Z,50
2019-05-05T14:53:58.173Z,50
2019-05-05T14:54:38.726Z,50
2019-05-05T14:55:22.097Z,50
2019-05-05T14:55:59.860Z,50
2019-05-05T14:56:40.432Z,50
2019-05-05T14:57:20.996Z,50
2019-05-05T14:58:03.787Z,50
2019-05-05T14:58:43.804Z,50
2019-05-05T15:05:27.762Z,45
2019-05-05T15:06:08.323Z,45
2019-05-05T15:06:48.892Z,45
2019-05-05T15:07:29.462Z,45
2019-05-05T15:08:10.026Z,45
2019-05-05T15:08:50.592Z,45
2019-05-05T15:09:31.141Z,50
2019-05-05T15:10:11.708Z,50
2019-05-05T15:10:54.514Z,50
2019-05-05T15:16:57.900Z,45
2019-05-05T15:17:38.497Z,45
2019-05-05T15:18:19.035Z,45
2019-05-05T15:18:59.596Z,45
2019-05-05T15:19:40.153Z,45
2019-05-05T15:20:20.733Z,45
2019-05-05T15:21:01.297Z,45
2019-05-05T15:21:41.874Z,45
2019-05-05T15:22:23.878Z,45
2019-05-05T15:28:27.579Z,45
2019-05-05T15:29:08.163Z,45
2019-05-05T15:29:48.726Z,45
2019-05-05T15:30:29.292Z,45
2019-05-05T15:31:09.846Z,40
2019-05-05T15:31:50.417Z,40
2019-05-05T15:32:30.990Z,40
2019-05-05T15:33:13.643Z,40
2019-05-05T15:33:53.537Z,40
2019-05-05T15:40:37.775Z,40
2019-05-05T15:41:18.334Z,45
2019-05-05T15:41:58.891Z,45
2019-05-05T15:42:39.458Z,45
2019-05-05T15:43:20.020Z,45
2019-05-05T15:44:00.594Z,45
2019-05-05T15:44:41.160Z,45
2019-05-05T15:45:23.404Z,45
2019-05-05T15:46:04.270Z,45
2019-05-05T15:52:47.949Z,45
2019-05-05T15:53:28.548Z,45
2019-05-05T15:54:09.132Z,45
2019-05-05T15:54:49.696Z,45
2019-05-05T15:55:30.285Z,45
2019-05-05T15:56:10.855Z,45
2019-05-05T15:57:02.888Z,45
2019-05-05T15:57:33.530Z,45
2019-05-05T15:58:14.129Z,45
2019-05-05T16:04:17.694Z,50
2019-05-05T16:04:58.249Z,50
2019-05-05T16:05:38.830Z,50
2019-05-05T16:06:19.393Z,50
2019-05-05T16:06:59.954Z,50
2019-05-05T16:07:40.517Z,50
2019-05-05T16:08:21.129Z,50
2019-05-05T16:09:01.683Z,50
2019-05-05T16:09:44.331Z,50
2019-05-05T16:16:27.996Z,45
2019-05-05T16:17:08.590Z,45
2019-05-05T16:17:49.186Z,45
2019-05-05T16:18:29.757Z,45
2019-05-05T16:19:10.378Z,45
2019-05-05T16:19:50.945Z,45
2019-05-05T16:20:33.202Z,45
2019-05-05T16:21:14.004Z,45
2019-05-05T16:27:57.797Z,60
2019-05-05T16:28:38.366Z,50
2019-05-05T16:29:18.938Z,55
2019-05-05T16:29:59.509Z,80
2019-05-05T16:30:40.080Z,60
2019-05-05T16:31:20.642Z,105
2019-05-05T16:32:01.209Z,85
2019-05-05T16:32:41.803Z,105
2019-05-05T16:33:24.051Z,95
2019-05-05T16:40:08.037Z,95
2019-05-05T16:40:48.609Z,130
2019-05-05T16:41:29.196Z,150
2019-05-05T16:42:09.775Z,215
2019-05-05T16:42:50.353Z,160
2019-05-05T16:43:30.929Z,150
2019-05-05T16:44:11.483Z,50
2019-05-05T16:44:53.820Z,50
2019-05-05T16:51:37.773Z,45
2019-05-05T16:52:18.336Z,45
2019-05-05T16:52:58.932Z,45
2019-05-05T16:53:39.514Z,45
2019-05-05T16:54:20.092Z,40
2019-05-05T16:55:00.874Z,40
2019-05-05T16:55:41.593Z,40
2019-05-05T16:56:24.150Z,40
2019-05-05T17:00:28.221Z,40
2019-05-05T17:01:08.804Z,40
2019-05-05T17:01:49.755Z,40
2019-05-05T17:02:30.604Z,40
2019-05-05T17:03:13.340Z,40
2019-05-05T17:03:54.103Z,40
2019-05-05T17:07:58.549Z,35
2019-05-05T17:08:39.088Z,35
2019-05-05T17:09:19.888Z,35
2019-05-05T17:10:00.699Z,35
2019-05-05T17:10:43.378Z,35
2019-05-05T17:11:24.498Z,35
2019-05-05T17:15:29.980Z,30
2019-05-05T17:16:11.210Z,30
2019-05-05T17:20:18.258Z,25
2019-05-05T17:20:59.039Z,25
2019-05-05T17:21:39.711Z,25
2019-05-05T17:22:20.276Z,25
2019-05-05T17:23:01.525Z,25
2019-05-05T17:23:43.434Z,25
2019-05-05T17:27:51.074Z,25
2019-05-05T17:28:28.469Z,25
2019-05-05T17:29:09.039Z,25
2019-05-05T17:29:49.590Z,25
2019-05-05T17:30:30.183Z,25
2019-05-05T17:31:10.953Z,25
2019-05-05T17:31:53.800Z,25
2019-05-05T17:32:34.319Z,25
2019-05-05T17:36:37.555Z,25
2019-05-05T17:37:18.466Z,20
2019-05-05T17:37:59.174Z,20
2019-05-05T17:38:39.748Z,20
2019-05-05T17:39:21.103Z,20
2019-05-05T17:45:27.771Z,20
2019-05-05T17:46:08.346Z,20
2019-05-05T17:46:48.932Z,20
2019-05-05T17:47:29.521Z,20
2019-05-05T17:48:10.102Z,15
2019-05-05T17:48:50.671Z,15
2019-05-05T17:49:31.265Z,15
2019-05-05T17:50:11.838Z,15
2019-05-05T17:50:53.565Z,15
2019-05-05T17:56:57.633Z,15
2019-05-05T17:57:38.191Z,15
2019-05-05T17:58:18.868Z,15
2019-05-05T17:58:59.447Z,15
2019-05-05T17:59:40.058Z,15
2019-05-05T18:00:20.635Z,15
2019-05-05T18:01:01.192Z,15
2019-05-05T18:01:43.902Z,15
2019-05-05T18:07:47.752Z,10
2019-05-05T18:08:28.309Z,10
2019-05-05T18:09:08.886Z,10
2019-05-05T18:09:49.469Z,10
2019-05-05T18:10:30.057Z,10
2019-05-05T18:11:10.675Z,10
2019-05-05T18:11:53.458Z,10
2019-05-05T18:12:33.744Z,10
2019-05-05T18:18:37.539Z,5
2019-05-05T18:19:18.112Z,5
2019-05-05T18:19:58.749Z,5
2019-05-05T18:20:39.415Z,5
2019-05-05T18:21:19.982Z,5
2019-05-05T18:22:00.565Z,5
2019-05-05T18:22:43.416Z,5
2019-05-05T18:23:23.416Z,5
2019-05-05T18:30:07.880Z,0
2019-05-05T18:30:48.429Z,0
2019-05-05T18:31:29.023Z,0
2019-05-05T18:32:09.588Z,0
2019-05-05T18:32:50.154Z,0
2019-05-05T18:33:30.704Z,0
2019-05-05T18:34:13.364Z,0
2019-05-05T18:34:51.857Z,0
2019-05-05T18:35:33.895Z,0
2019-05-05T18:41:37.726Z,0
2019-05-05T18:42:18.292Z,0
2019-05-05T18:42:58.857Z,0
2019-05-05T18:43:39.422Z,0
2019-05-05T18:44:19.987Z,0
2019-05-05T18:45:00.560Z,0
2019-05-05T18:45:41.133Z,0
2019-05-05T18:46:21.694Z,0
2019-05-05T18:47:02.260Z,0
2019-05-05T18:53:07.544Z,0
2019-05-05T18:53:48.110Z,0
2019-05-05T18:54:28.704Z,0
2019-05-05T18:55:09.265Z,0
2019-05-05T18:55:49.822Z,0
2019-05-05T18:56:30.385Z,0
2019-05-05T18:57:10.947Z,0
2019-05-05T18:57:51.509Z,0
2019-05-05T18:58:34.021Z,0
2019-05-05T19:05:17.693Z,0
2019-05-05T19:05:58.263Z,0
2019-05-05T19:06:38.847Z,0
2019-05-05T19:07:19.484Z,0
2019-05-05T19:08:00.559Z,0
2019-05-05T19:08:51.627Z,0
2019-05-05T19:09:21.695Z,0
2019-05-05T19:10:03.994Z,0
2019-05-05T19:16:07.628Z,0